VIJP/JAI METAR and TAF weather

Enter ICAO airport designator
Station Type Date Time Source
VIJP METAR 2018/12/17 16:30 UTC NOAA

VIJP 171630Z VRB03KT 2000 HZ SCT035 SCT100 14/04 Q1021 NOSIG


Station Type Date Time Source
VIJP Decoded METAR 2018/12/17 16:30 UTC NOAA

Jaipur / Sanganer, India (VIJP) 26-49N 075-48E 390M
Dec 17, 2018 - 11:30 AM EST / 2018.12.17 1630 UTC
Wind: Variable at 3 MPH (3 KT):0
Visibility: 1 mile(s):0
Sky conditions: partly cloudy
Weather: haze
Temperature: 57 F (14 C)
Dew Point: 39 F (4 C)
Relative Humidity: 50%
Pressure (altimeter): 30.15 in. Hg (1021 hPa)
ob: VIJP 171630Z VRB03KT 2000 HZ SCT035 SCT100 14/04 Q1021 NOSIG
cycle: 16

Station Type Date Time Source
VIJP TAF 2018/12/17 12:00 UTC NOAA

TAF VIJP 171100Z 1712/1818 07005KT 2000 HZ FEW035 SCT100
BECMG 1800/1802 VRB02KT 1500 BR SCT035 SCT100
BECMG 1805/1807 09005KT 3000 HZ
BECMG 1812/1813 VRB02KT 2000 HZ


Example: see airport list